Time;durP1;ratioP1;P1;durP2;ratioP2;P2;SDS_P1;SDS_P2;PMS_P1;PMS_P2;Temp;Humidity;BMP_temperature;BMP_pressure;BME280_temperature;BME280_humidity;BME280_pressure;Samples;Min_cycle;Max_cycle;Signal;HPM_P1;HPM_P2
2021/01/17 00:02:15;;;;;;;23.20;19.33;;;;;;;;;;5033348;28;20473;-65
2021/01/17 00:04:43;;;;;;;21.03;18.77;;;;;;;;;;5032975;28;20502;-66
2021/01/17 00:07:10;;;;;;;20.10;17.33;;;;;;;;;;5033723;28;20457;-65
2021/01/17 00:09:36;;;;;;;22.63;18.97;;;;;;;;;;5032709;28;20487;-66
2021/01/17 00:12:04;;;;;;;27.57;19.30;;;;;;;;;;5033253;28;20477;-66
2021/01/17 00:14:32;;;;;;;22.57;20.07;;;;;;;;;;5033558;28;20461;-66
2021/01/17 00:16:58;;;;;;;22.80;19.43;;;;;;;;;;5033359;28;20898;-66
2021/01/17 00:19:25;;;;;;;23.37;19.67;;;;;;;;;;5032764;28;20460;-66
2021/01/17 00:21:53;;;;;;;20.73;18.50;;;;;;;;;;5032903;28;20469;-65
2021/01/17 00:24:19;;;;;;;19.97;17.47;;;;;;;;;;5033151;28;20457;-66
2021/01/17 00:26:46;;;;;;;21.07;18.87;;;;;;;;;;5033287;28;20514;-66
2021/01/17 00:29:12;;;;;;;19.00;17.07;;;;;;;;;;5032959;28;20481;-66
2021/01/17 00:31:40;;;;;;;21.53;18.00;;;;;;;;;;5032570;28;20483;-66
2021/01/17 00:34:06;;;;;;;22.00;18.27;;;;;;;;;;5032901;28;20449;-66
2021/01/17 00:36:39;;;;;;;22.90;20.40;;;;;;;;;;5033538;28;20448;-65
2021/01/17 00:39:07;;;;;;;23.33;18.77;;;;;;;;;;5033037;28;20456;-66
2021/01/17 00:41:34;;;;;;;22.20;18.33;;;;;;;;;;5032313;28;20923;-67
2021/01/17 00:44:01;;;;;;;23.33;19.63;;;;;;;;;;5032923;28;20452;-67
2021/01/17 00:46:35;;;;;;;22.30;19.60;;;;;;;;;;5032471;28;20801;-67
2021/01/17 00:49:02;;;;;;;22.87;20.40;;;;;;;;;;5031989;28;20484;-67
2021/01/17 00:51:36;;;;;;;22.60;19.73;;;;;;;;;;5032576;28;21015;-66
2021/01/17 00:54:03;;;;;;;22.83;20.43;;;;;;;;;;5033104;28;20459;-66
2021/01/17 00:56:30;;;;;;;20.27;18.07;;;;;;;;;;5032671;28;20528;-66
2021/01/17 00:58:57;;;;;;;22.57;20.17;;;;;;;;;;5032722;28;20441;-66
2021/01/17 01:01:23;;;;;;;28.53;21.80;;;;;;;;;;5032819;28;20469;-66
2021/01/17 01:03:50;;;;;;;24.07;20.10;;;;;;;;;;5032759;28;20449;-66
2021/01/17 01:06:18;;;;;;;22.40;20.10;;;;;;;;;;5032898;28;20456;-65
2021/01/17 01:08:45;;;;;;;23.80;21.07;;;;;;;;;;5032836;28;20906;-66
2021/01/17 01:11:17;;;;;;;24.27;20.90;;;;;;;;;;5034095;28;20472;-66
2021/01/17 01:13:44;;;;;;;23.17;19.40;;;;;;;;;;5034757;28;20452;-66
2021/01/17 01:16:14;;;;;;;24.90;22.20;;;;;;;;;;5035214;28;20448;-66
2021/01/17 01:18:41;;;;;;;23.73;20.27;;;;;;;;;;5033784;28;20498;-65
2021/01/17 01:21:08;;;;;;;23.03;20.67;;;;;;;;;;5033965;28;20476;-66
2021/01/17 01:23:34;;;;;;;22.60;20.00;;;;;;;;;;5033652;28;20449;-66
2021/01/17 01:26:01;;;;;;;23.73;21.23;;;;;;;;;;5033957;28;20506;-67
2021/01/17 01:28:28;;;;;;;22.93;19.63;;;;;;;;;;5032512;28;20481;-65
2021/01/17 01:30:55;;;;;;;20.47;18.37;;;;;;;;;;5032238;28;20479;-66
2021/01/17 01:33:22;;;;;;;23.07;19.40;;;;;;;;;;5032679;28;20472;-67
2021/01/17 01:35:49;;;;;;;22.00;18.67;;;;;;;;;;5029264;28;20459;-67
2021/01/17 01:38:16;;;;;;;23.10;19.90;;;;;;;;;;5032040;28;21209;-66
2021/01/17 01:40:51;;;;;;;22.57;20.13;;;;;;;;;;5032632;28;20539;-65
2021/01/17 01:43:19;;;;;;;22.37;19.50;;;;;;;;;;5032442;28;20440;-66
2021/01/17 01:45:46;;;;;;;23.77;19.33;;;;;;;;;;5032792;28;20449;-66
2021/01/17 01:48:14;;;;;;;23.13;19.70;;;;;;;;;;5031963;28;21014;-67
2021/01/17 01:50:41;;;;;;;22.80;19.50;;;;;;;;;;5032795;28;20469;-66
2021/01/17 01:53:07;;;;;;;23.40;19.47;;;;;;;;;;5032772;28;20451;-66
2021/01/17 01:55:34;;;;;;;23.07;20.67;;;;;;;;;;5032729;28;20444;-65
2021/01/17 01:58:05;;;;;;;23.17;20.27;;;;;;;;;;5032463;28;20459;-66
2021/01/17 02:00:31;;;;;;;23.53;20.17;;;;;;;;;;5032445;28;20475;-66
2021/01/17 02:02:58;;;;;;;25.00;20.37;;;;;;;;;;5033054;28;20485;-65
2021/01/17 02:05:25;;;;;;;23.37;20.87;;;;;;;;;;5032041;28;20444;-65
2021/01/17 02:08:07;;;;;;;24.43;21.77;;;;;;;;;;5032240;28;20826;-65
2021/01/17 02:10:35;;;;;;;23.43;20.83;;;;;;;;;;5030413;28;20477;-66
2021/01/17 02:13:04;;;;;;;24.57;21.00;;;;;;;;;;5033221;28;20437;-66
2021/01/17 02:15:33;;;;;;;24.77;20.63;;;;;;;;;;5032614;28;20449;-66
2021/01/17 02:18:01;;;;;;;22.77;20.27;;;;;;;;;;5032859;28;20449;-66
2021/01/17 02:20:29;;;;;;;26.83;22.30;;;;;;;;;;5048986;28;20435;-64
2021/01/17 02:23:04;;;;;;;22.07;19.07;;;;;;;;;;5054768;28;20439;-65
2021/01/17 02:25:32;;;;;;;24.10;20.90;;;;;;;;;;5054097;28;20436;-66
2021/01/17 02:28:00;;;;;;;22.40;20.03;;;;;;;;;;5053260;28;20451;-65
2021/01/17 02:30:28;;;;;;;23.90;21.10;;;;;;;;;;5053351;28;20453;-66
2021/01/17 02:32:56;;;;;;;22.33;19.63;;;;;;;;;;5053201;28;20449;-66
2021/01/17 02:35:24;;;;;;;21.50;19.20;;;;;;;;;;5053486;28;20543;-66
2021/01/17 02:37:56;;;;;;;25.67;22.90;;;;;;;;;;5053170;28;20455;-66
2021/01/17 02:40:29;;;;;;;23.90;21.30;;;;;;;;;;5054525;28;20502;-66
2021/01/17 02:42:57;;;;;;;23.93;21.30;;;;;;;;;;5057289;28;20444;-65
2021/01/17 02:45:24;;;;;;;24.87;21.57;;;;;;;;;;5057171;28;20444;-65
2021/01/17 02:47:50;;;;;;;22.37;20.07;;;;;;;;;;5053644;28;20455;-64
2021/01/17 02:50:17;;;;;;;24.13;21.43;;;;;;;;;;5041084;28;21101;-66
2021/01/17 02:52:46;;;;;;;23.60;20.10;;;;;;;;;;5036087;28;20455;-66
2021/01/17 02:55:13;;;;;;;26.47;22.23;;;;;;;;;;5035607;28;20506;-66
2021/01/17 02:57:41;;;;;;;22.27;19.83;;;;;;;;;;5035367;28;20522;-65
2021/01/17 03:00:10;;;;;;;25.77;21.70;;;;;;;;;;5034803;28;20936;-65
2021/01/17 03:02:37;;;;;;;25.10;21.77;;;;;;;;;;5035782;28;20936;-66
2021/01/17 03:05:05;;;;;;;23.43;20.93;;;;;;;;;;5035290;28;20445;-66
2021/01/17 03:07:33;;;;;;;23.60;20.20;;;;;;;;;;5035556;28;20856;-65
2021/01/17 03:10:01;;;;;;;22.67;20.23;;;;;;;;;;5035702;28;20483;-66
2021/01/17 03:12:28;;;;;;;25.70;22.30;;;;;;;;;;5035838;28;20465;-66
2021/01/17 03:14:55;;;;;;;23.80;21.33;;;;;;;;;;5042432;28;20449;-66
2021/01/17 03:17:22;;;;;;;25.50;20.70;;;;;;;;;;5044019;28;20452;-65
2021/01/17 03:19:49;;;;;;;24.17;19.67;;;;;;;;;;5037518;28;20502;-67
2021/01/17 03:22:16;;;;;;;23.00;20.50;;;;;;;;;;5037672;28;20468;-65
2021/01/17 03:24:42;;;;;;;23.03;20.63;;;;;;;;;;5036990;28;20928;-66
2021/01/17 03:27:09;;;;;;;29.17;21.00;;;;;;;;;;5035396;28;20452;-66
2021/01/17 03:29:36;;;;;;;27.30;20.73;;;;;;;;;;5034319;28;20481;-66
2021/01/17 03:32:02;;;;;;;24.37;21.53;;;;;;;;;;5035291;28;20468;-66
2021/01/17 03:34:30;;;;;;;25.03;22.07;;;;;;;;;;5034051;28;20459;-67
2021/01/17 03:36:57;;;;;;;24.57;20.47;;;;;;;;;;5034756;28;20440;-66
2021/01/17 03:39:23;;;;;;;24.30;20.17;;;;;;;;;;5035098;28;20463;-67
2021/01/17 03:41:50;;;;;;;23.60;21.00;;;;;;;;;;5034366;28;20480;-67
2021/01/17 03:44:17;;;;;;;24.47;21.67;;;;;;;;;;5034317;28;20453;-66
2021/01/17 03:46:43;;;;;;;23.30;20.50;;;;;;;;;;5035179;28;20441;-67
2021/01/17 03:49:10;;;;;;;26.10;21.83;;;;;;;;;;5034204;28;20538;-67
2021/01/17 03:51:37;;;;;;;25.37;22.27;;;;;;;;;;5033707;28;20473;-66
2021/01/17 03:54:04;;;;;;;24.70;21.83;;;;;;;;;;5034182;28;20445;-67
2021/01/17 03:56:31;;;;;;;24.73;22.00;;;;;;;;;;5034869;28;20452;-68
2021/01/17 03:58:57;;;;;;;23.63;21.10;;;;;;;;;;5034656;28;20452;-67
2021/01/17 04:01:24;;;;;;;25.80;20.23;;;;;;;;;;5034136;28;20476;-66
2021/01/17 04:03:51;;;;;;;27.93;22.47;;;;;;;;;;5034488;28;20452;-66
2021/01/17 04:06:17;;;;;;;27.70;24.87;;;;;;;;;;5033585;28;20471;-67
2021/01/17 04:08:45;;;;;;;28.63;25.63;;;;;;;;;;5033751;28;20487;-65
2021/01/17 04:11:11;;;;;;;27.90;25.00;;;;;;;;;;5033505;28;20473;-68
2021/01/17 04:13:38;;;;;;;27.80;24.90;;;;;;;;;;5034223;28;20456;-67
2021/01/17 04:16:05;;;;;;;29.07;25.93;;;;;;;;;;5033792;28;20466;-67
2021/01/17 04:18:31;;;;;;;28.27;25.43;;;;;;;;;;5033880;28;20448;-68
2021/01/17 04:20:58;;;;;;;28.23;25.33;;;;;;;;;;5033577;28;20495;-67
2021/01/17 04:23:25;;;;;;;25.87;23.27;;;;;;;;;;5033246;28;20448;-66
2021/01/17 04:25:52;;;;;;;28.87;25.83;;;;;;;;;;5034338;28;20461;-67
2021/01/17 04:28:20;;;;;;;30.80;27.70;;;;;;;;;;5033524;28;20485;-66
2021/01/17 04:30:46;;;;;;;29.37;26.20;;;;;;;;;;5033983;28;20544;-66
2021/01/17 04:33:18;;;;;;;30.40;27.23;;;;;;;;;;5033442;28;21038;-66
2021/01/17 04:35:44;;;;;;;28.93;25.93;;;;;;;;;;5033820;28;20457;-67
2021/01/17 04:38:11;;;;;;;32.60;27.13;;;;;;;;;;5032548;28;20452;-67
2021/01/17 04:40:38;;;;;;;31.43;27.10;;;;;;;;;;5033928;28;20849;-68
2021/01/17 04:43:08;;;;;;;31.43;28.00;;;;;;;;;;5033279;28;20457;-67
2021/01/17 04:45:36;;;;;;;31.23;27.50;;;;;;;;;;5033445;28;20448;-68
2021/01/17 04:48:03;;;;;;;31.90;28.20;;;;;;;;;;5032587;28;20449;-68
2021/01/17 04:50:31;;;;;;;28.20;25.27;;;;;;;;;;5033332;28;20468;-66
2021/01/17 04:53:00;;;;;;;28.70;25.63;;;;;;;;;;5032956;28;20459;-66
2021/01/17 04:55:27;;;;;;;31.33;27.97;;;;;;;;;;5033522;28;20453;-67
2021/01/17 04:58:00;;;;;;;32.23;28.93;;;;;;;;;;5032969;28;20449;-69
2021/01/17 05:00:29;;;;;;;30.83;27.53;;;;;;;;;;5033402;28;20460;-67
2021/01/17 05:03:01;;;;;;;31.70;27.40;;;;;;;;;;5034358;28;20455;-68
2021/01/17 05:05:31;;;;;;;32.07;28.73;;;;;;;;;;5034772;28;20452;-68
2021/01/17 05:08:10;;;;;;;35.80;29.13;;;;;;;;;;5033544;28;20691;-68
2021/01/17 05:10:37;;;;;;;33.50;29.17;;;;;;;;;;5033981;28;20465;-68
2021/01/17 05:13:09;;;;;;;32.13;28.43;;;;;;;;;;5035509;28;20444;-69
2021/01/17 05:15:38;;;;;;;32.83;27.40;;;;;;;;;;5036235;28;20441;-68
2021/01/17 05:18:05;;;;;;;34.17;29.77;;;;;;;;;;5032711;28;20932;-68
2021/01/17 05:20:32;;;;;;;33.37;28.57;;;;;;;;;;5033928;28;20471;-68
2021/01/17 05:22:59;;;;;;;32.40;28.97;;;;;;;;;;5033442;28;20448;-68
2021/01/17 05:25:27;;;;;;;33.90;30.23;;;;;;;;;;5033759;28;20441;-68
2021/01/17 05:27:53;;;;;;;31.03;27.70;;;;;;;;;;5033366;28;20440;-68
2021/01/17 05:30:20;;;;;;;32.17;28.53;;;;;;;;;;5032559;28;20488;-68
2021/01/17 05:32:51;;;;;;;36.30;31.47;;;;;;;;;;5033054;28;20456;-66
2021/01/17 05:35:18;;;;;;;33.00;29.53;;;;;;;;;;5021657;28;21007;-70
2021/01/17 05:37:49;;;;;;;34.13;29.53;;;;;;;;;;5032294;28;20456;-68
2021/01/17 05:40:16;;;;;;;33.53;29.90;;;;;;;;;;5032965;28;20444;-68
2021/01/17 05:42:43;;;;;;;39.13;29.90;;;;;;;;;;5032211;28;20952;-68
2021/01/17 05:45:11;;;;;;;34.10;30.43;;;;;;;;;;5036127;28;20452;-68
2021/01/17 05:47:38;;;;;;;33.33;29.60;;;;;;;;;;5036581;28;20836;-67
2021/01/17 05:50:07;;;;;;;36.00;30.77;;;;;;;;;;5039363;28;20485;-70
2021/01/17 05:52:34;;;;;;;37.47;31.20;;;;;;;;;;5035030;28;20469;-68
2021/01/17 05:55:00;;;;;;;35.93;31.67;;;;;;;;;;5032895;28;20838;-68
2021/01/17 05:57:27;;;;;;;36.17;32.27;;;;;;;;;;5032424;28;20452;-67
2021/01/17 05:59:54;;;;;;;34.80;31.10;;;;;;;;;;5032380;28;20444;-68
2021/01/17 06:02:21;;;;;;;35.70;30.87;;;;;;;;;;5032961;28;20469;-68
2021/01/17 06:04:49;;;;;;;34.90;30.93;;;;;;;;;;5032340;28;20507;-68
2021/01/17 06:07:17;;;;;;;33.00;29.50;;;;;;;;;;5032457;28;20463;-66
2021/01/17 06:09:45;;;;;;;36.77;32.80;;;;;;;;;;5031743;28;20937;-67
2021/01/17 06:12:12;;;;;;;36.93;31.83;;;;;;;;;;5031977;28;20479;-68
2021/01/17 06:14:38;;;;;;;35.47;31.67;;;;;;;;;;5032445;28;20456;-68
2021/01/17 06:17:06;;;;;;;35.50;31.80;;;;;;;;;;5036193;28;20453;-68
2021/01/17 06:19:33;;;;;;;34.77;30.83;;;;;;;;;;5036637;28;20488;-66
2021/01/17 06:22:01;;;;;;;36.70;32.77;;;;;;;;;;5035920;28;20476;-66
2021/01/17 06:24:35;;;;;;;37.93;33.60;;;;;;;;;;5036584;28;20449;-67
2021/01/17 06:27:02;;;;;;;34.67;30.27;;;;;;;;;;5036289;28;20445;-66
2021/01/17 06:29:36;;;;;;;35.73;31.80;;;;;;;;;;5036330;28;20488;-66
2021/01/17 06:32:13;;;;;;;36.53;32.30;;;;;;;;;;5036751;28;20518;-66
2021/01/17 06:34:43;;;;;;;35.93;31.93;;;;;;;;;;5035880;28;20444;-67
2021/01/17 06:37:11;;;;;;;37.23;33.30;;;;;;;;;;5035693;28;20455;-66
2021/01/17 06:39:42;;;;;;;36.40;32.57;;;;;;;;;;5036264;28;20470;-67
2021/01/17 06:42:10;;;;;;;35.80;32.00;;;;;;;;;;5035720;28;20534;-66
2021/01/17 06:44:36;;;;;;;34.80;30.73;;;;;;;;;;5042451;28;21009;-66
2021/01/17 06:47:03;;;;;;;35.33;31.40;;;;;;;;;;5043113;28;20456;-67
2021/01/17 06:49:31;;;;;;;35.17;31.37;;;;;;;;;;5037473;28;20491;-67
2021/01/17 06:51:58;;;;;;;34.87;31.20;;;;;;;;;;5035666;28;20469;-67
2021/01/17 06:54:32;;;;;;;40.73;34.10;;;;;;;;;;5035715;28;20445;-67
2021/01/17 06:57:00;;;;;;;37.13;32.80;;;;;;;;;;5035792;28;20445;-67
2021/01/17 06:59:30;;;;;;;33.47;29.97;;;;;;;;;;5036808;28;20451;-67
2021/01/17 07:02:18;;;;;;;36.23;32.27;;;;;;;;;;5036570;28;20483;-66
2021/01/17 07:04:53;;;;;;;34.17;30.50;;;;;;;;;;5036490;28;20448;-66
2021/01/17 07:07:38;;;;;;;35.10;31.30;;;;;;;;;;5036106;28;20463;-66
2021/01/17 07:10:05;;;;;;;34.90;31.13;;;;;;;;;;5035777;28;20492;-66
2021/01/17 07:12:39;;;;;;;38.47;31.67;;;;;;;;;;5035174;28;20526;-65
2021/01/17 07:15:07;;;;;;;36.90;32.80;;;;;;;;;;5035722;28;20826;-66
2021/01/17 07:17:34;;;;;;;35.80;31.90;;;;;;;;;;5035365;28;20465;-66
2021/01/17 07:20:03;;;;;;;35.07;31.47;;;;;;;;;;5035843;28;20453;-66
2021/01/17 07:22:30;;;;;;;37.40;33.33;;;;;;;;;;5035232;28;20495;-65
2021/01/17 07:24:57;;;;;;;38.83;33.73;;;;;;;;;;5035384;28;20929;-67
2021/01/17 07:27:39;;;;;;;39.63;33.50;;;;;;;;;;5035530;28;20461;-65
2021/01/17 07:30:14;;;;;;;37.47;32.80;;;;;;;;;;5033220;28;21003;-66
2021/01/17 07:32:51;;;;;;;36.17;30.37;;;;;;;;;;5035272;28;20452;-66
2021/01/17 07:35:20;;;;;;;37.17;32.70;;;;;;;;;;5017715;28;20449;-66
2021/01/17 07:37:49;;;;;;;14.50;8.47;;;;;;;;;;5034438;28;20471;-69
2021/01/17 07:40:49;;;;;;;12.60;9.23;;;;;;;;;;5054904;28;20474;-68
2021/01/17 07:43:10;;;;;;;12.80;11.60;;;;;;;;;;5028876;28;20453;-68
2021/01/17 07:45:39;;;;;;;13.43;10.07;;;;;;;;;;5040193;28;20479;-67
2021/01/17 07:48:07;;;;;;;11.20;10.10;;;;;;;;;;5040249;28;20452;-68
2021/01/17 07:50:36;;;;;;;12.27;10.17;;;;;;;;;;5041476;28;21017;-68
2021/01/17 07:53:04;;;;;;;11.37;10.17;;;;;;;;;;5040720;28;20488;-68
2021/01/17 07:55:31;;;;;;;12.30;11.10;;;;;;;;;;5035048;28;20946;-68
2021/01/17 07:57:58;;;;;;;11.37;10.27;;;;;;;;;;5033669;28;20456;-67
2021/01/17 08:00:25;;;;;;;11.47;10.47;;;;;;;;;;5033251;28;20447;-67
2021/01/17 08:02:53;;;;;;;11.03;10.03;;;;;;;;;;5029977;28;20461;-65
2021/01/17 08:05:19;;;;;;;11.40;10.40;;;;;;;;;;5033526;28;20475;-68
2021/01/17 08:07:46;;;;;;;12.37;11.27;;;;;;;;;;5033696;28;20456;-65
2021/01/17 08:10:13;;;;;;;11.90;10.80;;;;;;;;;;5033134;28;20484;-67
2021/01/17 08:12:41;;;;;;;11.60;10.60;;;;;;;;;;5033186;28;20457;-67
2021/01/17 08:15:25;;;;;;;12.73;11.57;;;;;;;;;;5033276;28;20491;-68
2021/01/17 08:17:53;;;;;;;11.20;10.20;;;;;;;;;;5033377;28;20452;-65
2021/01/17 08:20:30;;;;;;;11.50;10.50;;;;;;;;;;5033354;28;20502;-68
2021/01/17 08:23:17;;;;;;;11.90;10.80;;;;;;;;;;5033488;28;20463;-68
2021/01/17 08:25:48;;;;;;;11.10;10.10;;;;;;;;;;5032720;28;20868;-68
2021/01/17 08:28:36;;;;;;;10.70;9.70;;;;;;;;;;5033219;28;20835;-66
2021/01/17 08:31:03;;;;;;;10.77;9.77;;;;;;;;;;5018347;28;20534;-66
2021/01/17 08:33:30;;;;;;;12.17;11.17;;;;;;;;;;5033322;28;20445;-66
2021/01/17 08:35:57;;;;;;;12.33;11.23;;;;;;;;;;5032826;28;20850;-67
2021/01/17 08:38:24;;;;;;;12.30;11.23;;;;;;;;;;5032378;28;20449;-66
2021/01/17 08:40:51;;;;;;;12.17;10.97;;;;;;;;;;5033093;28;20468;-66
2021/01/17 08:43:19;;;;;;;12.50;11.40;;;;;;;;;;5033351;28;20452;-67
2021/01/17 08:45:46;;;;;;;12.57;11.37;;;;;;;;;;5032357;28;20457;-67
2021/01/17 08:48:23;;;;;;;11.57;10.47;;;;;;;;;;5032529;28;20457;-66
2021/01/17 08:50:51;;;;;;;13.30;12.10;;;;;;;;;;5032880;28;20554;-67
2021/01/17 08:53:25;;;;;;;10.97;9.97;;;;;;;;;;5032766;28;20936;-66
2021/01/17 08:55:52;;;;;;;13.00;11.90;;;;;;;;;;5032752;28;20449;-66
2021/01/17 08:58:38;;;;;;;13.13;12.00;;;;;;;;;;5032615;28;20475;-67
2021/01/17 09:01:06;;;;;;;11.97;10.87;;;;;;;;;;5020058;28;20461;-67
2021/01/17 09:03:33;;;;;;;13.10;11.87;;;;;;;;;;5032700;28;20449;-67
2021/01/17 09:06:02;;;;;;;12.40;11.27;;;;;;;;;;5024751;28;20511;-67
2021/01/17 09:08:29;;;;;;;11.90;10.80;;;;;;;;;;5032020;28;20453;-67
2021/01/17 09:10:56;;;;;;;11.77;10.67;;;;;;;;;;5032896;28;20485;-67
2021/01/17 09:13:23;;;;;;;11.67;10.67;;;;;;;;;;5032840;28;20453;-68
2021/01/17 09:15:57;;;;;;;12.10;11.07;;;;;;;;;;5032516;28;20468;-68
2021/01/17 09:18:24;;;;;;;13.33;12.13;;;;;;;;;;5032720;28;20453;-68
2021/01/17 09:20:52;;;;;;;11.33;10.33;;;;;;;;;;5032525;28;20476;-68
2021/01/17 09:23:20;;;;;;;24.07;22.00;;;;;;;;;;5034356;28;20464;-70
2021/01/17 09:25:47;;;;;;;27.23;24.63;;;;;;;;;;5034881;28;20453;-69
2021/01/17 09:28:15;;;;;;;27.87;25.30;;;;;;;;;;5034850;28;20448;-68
2021/01/17 09:30:48;;;;;;;27.33;24.43;;;;;;;;;;5034178;28;20492;-68
2021/01/17 09:33:16;;;;;;;26.10;23.40;;;;;;;;;;5034911;28;20959;-68
2021/01/17 09:35:42;;;;;;;29.87;25.67;;;;;;;;;;5038151;28;20467;-69
2021/01/17 09:38:12;;;;;;;29.27;25.50;;;;;;;;;;5046207;28;20445;-71
2021/01/17 09:40:40;;;;;;;26.87;24.07;;;;;;;;;;5045970;28;20523;-70
2021/01/17 09:43:07;;;;;;;27.57;24.60;;;;;;;;;;5041792;28;20457;-70
2021/01/17 09:45:34;;;;;;;27.50;24.50;;;;;;;;;;5046446;28;20449;-70
2021/01/17 09:48:00;;;;;;;27.20;24.37;;;;;;;;;;5039241;28;20438;-70
2021/01/17 09:50:32;;;;;;;25.83;23.17;;;;;;;;;;5039796;28;20480;-69
2021/01/17 09:53:05;;;;;;;24.67;22.23;;;;;;;;;;5046407;28;20445;-70
2021/01/17 09:55:32;;;;;;;26.23;23.43;;;;;;;;;;5045520;28;20467;-70
2021/01/17 09:58:01;;;;;;;25.73;23.17;;;;;;;;;;5046117;28;20452;-67
2021/01/17 10:00:28;;;;;;;28.00;24.77;;;;;;;;;;5044625;28;20455;-67
2021/01/17 10:02:56;;;;;;;27.60;24.80;;;;;;;;;;5045744;28;20451;-69
2021/01/17 10:05:26;;;;;;;25.13;22.50;;;;;;;;;;5045523;28;20459;-70
2021/01/17 10:07:58;;;;;;;25.10;21.67;;;;;;;;;;5046796;28;20441;-70
2021/01/17 10:10:25;;;;;;;25.90;23.30;;;;;;;;;;5046613;28;20482;-66
2021/01/17 10:12:52;;;;;;;25.50;22.90;;;;;;;;;;5046588;28;20452;-65
2021/01/17 10:15:20;;;;;;;24.53;21.93;;;;;;;;;;5039375;28;20457;-65
2021/01/17 10:17:47;;;;;;;25.20;22.73;;;;;;;;;;5037876;28;21108;-66
2021/01/17 10:20:22;;;;;;;23.93;21.53;;;;;;;;;;5043966;28;20461;-70
2021/01/17 10:22:49;;;;;;;25.23;22.53;;;;;;;;;;5033377;28;20823;-70
2021/01/17 10:25:20;;;;;;;13.43;7.90;;;;;;;;;;5031889;28;20459;-70
2021/01/17 10:27:47;;;;;;;23.43;21.07;;;;;;;;;;5031853;28;20486;-70
2021/01/17 10:30:20;;;;;;;23.73;21.47;;;;;;;;;;5031649;28;20480;-70
2021/01/17 10:32:48;;;;;;;23.40;21.00;;;;;;;;;;5033939;28;20900;-71
2021/01/17 10:35:21;;;;;;;23.40;21.20;;;;;;;;;;5036830;28;20448;-70
2021/01/17 10:37:48;;;;;;;23.43;21.13;;;;;;;;;;5021475;28;20453;-70
2021/01/17 10:40:15;;;;;;;22.87;20.53;;;;;;;;;;5019382;28;20472;-70
2021/01/17 10:42:43;;;;;;;21.70;19.53;;;;;;;;;;5018465;28;20465;-69
2021/01/17 10:45:10;;;;;;;24.30;21.90;;;;;;;;;;5027813;28;20456;-70
2021/01/17 10:47:44;;;;;;;23.50;21.13;;;;;;;;;;5032171;28;20456;-70
2021/01/17 10:50:12;;;;;;;22.70;20.40;;;;;;;;;;5031624;28;20485;-70
2021/01/17 10:52:41;;;;;;;23.90;21.50;;;;;;;;;;5031819;28;20848;-70
2021/01/17 10:55:08;;;;;;;22.67;20.37;;;;;;;;;;5032508;28;20455;-70
2021/01/17 10:57:36;;;;;;;22.60;20.20;;;;;;;;;;5031619;28;20479;-70
2021/01/17 11:00:05;;;;;;;22.33;20.23;;;;;;;;;;5031663;28;20449;-70
2021/01/17 11:02:32;;;;;;;22.57;20.27;;;;;;;;;;5034268;28;21000;-69
2021/01/17 11:04:59;;;;;;;21.90;19.80;;;;;;;;;;5035435;28;20453;-70
2021/01/17 11:07:27;;;;;;;21.57;19.37;;;;;;;;;;5035552;28;20455;-70
2021/01/17 11:09:54;;;;;;;20.50;18.53;;;;;;;;;;5034928;28;20480;-70
2021/01/17 11:12:33;;;;;;;22.50;20.20;;;;;;;;;;5034874;28;20495;-70
2021/01/17 11:15:08;;;;;;;22.40;20.17;;;;;;;;;;5035024;28;20526;-70
2021/01/17 11:17:35;;;;;;;22.43;20.17;;;;;;;;;;5034857;28;20460;-70
2021/01/17 11:20:05;;;;;;;21.17;19.07;;;;;;;;;;5034924;28;20445;-70
2021/01/17 11:22:33;;;;;;;20.00;18.10;;;;;;;;;;5034298;28;20452;-70
2021/01/17 11:25:00;;;;;;;19.30;17.40;;;;;;;;;;5034688;28;20444;-70
2021/01/17 11:27:35;;;;;;;19.47;17.63;;;;;;;;;;5034437;28;20448;-70
2021/01/17 11:30:01;;;;;;;20.73;18.73;;;;;;;;;;5034553;28;20475;-70
2021/01/17 11:32:33;;;;;;;22.03;19.93;;;;;;;;;;5034235;28;20471;-70
2021/01/17 11:35:00;;;;;;;23.20;21.00;;;;;;;;;;5034672;28;20476;-70
2021/01/17 11:37:34;;;;;;;21.70;19.60;;;;;;;;;;5034553;28;20502;-70
2021/01/17 11:40:05;;;;;;;23.47;21.20;;;;;;;;;;5034106;28;20507;-70
2021/01/17 11:42:32;;;;;;;22.03;19.73;;;;;;;;;;5033810;28;20481;-70
2021/01/17 11:45:01;;;;;;;22.03;19.73;;;;;;;;;;5033743;28;20449;-70
2021/01/17 11:47:28;;;;;;;22.40;20.20;;;;;;;;;;5034081;28;20445;-70
2021/01/17 11:49:54;;;;;;;23.13;20.93;;;;;;;;;;5034555;28;20492;-70
2021/01/17 11:52:21;;;;;;;22.83;20.50;;;;;;;;;;5034169;28;21075;-70
2021/01/17 11:54:48;;;;;;;21.90;19.70;;;;;;;;;;5033858;28;20994;-71
2021/01/17 11:57:15;;;;;;;22.40;20.13;;;;;;;;;;5034152;28;20456;-70
2021/01/17 11:59:42;;;;;;;23.97;21.57;;;;;;;;;;5033849;28;20479;-70
2021/01/17 12:02:16;;;;;;;24.00;21.70;;;;;;;;;;5034628;28;20464;-70
2021/01/17 12:04:44;;;;;;;22.07;19.77;;;;;;;;;;5035067;28;20453;-71
2021/01/17 12:07:11;;;;;;;22.10;20.00;;;;;;;;;;5034787;28;20445;-70
2021/01/17 12:09:37;;;;;;;23.80;21.50;;;;;;;;;;5034590;28;20481;-70
2021/01/17 12:12:15;;;;;;;18.20;16.43;;;;;;;;;;5035830;28;20468;-70
2021/01/17 12:14:42;;;;;;;21.87;19.63;;;;;;;;;;5031648;28;20453;-70
2021/01/17 12:17:10;;;;;;;22.13;19.97;;;;;;;;;;5038564;28;20449;-70
2021/01/17 12:19:37;;;;;;;24.07;21.57;;;;;;;;;;5040019;28;20468;-70
2021/01/17 12:22:05;;;;;;;25.53;22.97;;;;;;;;;;5038372;28;20464;-71
2021/01/17 12:24:34;;;;;;;22.53;20.33;;;;;;;;;;5037505;28;20445;-70
2021/01/17 12:27:01;;;;;;;22.43;20.23;;;;;;;;;;5032458;28;20440;-71
2021/01/17 12:29:28;;;;;;;21.67;19.47;;;;;;;;;;5032982;28;21003;-71
2021/01/17 12:31:55;;;;;;;21.77;19.67;;;;;;;;;;5033264;28;20479;-71
2021/01/17 12:34:22;;;;;;;23.00;20.80;;;;;;;;;;5033144;28;20511;-71
2021/01/17 12:36:49;;;;;;;20.67;18.67;;;;;;;;;;5032219;28;20817;-73
2021/01/17 12:39:17;;;;;;;21.83;19.83;;;;;;;;;;5027940;28;20456;-73
2021/01/17 12:41:45;;;;;;;20.47;18.63;;;;;;;;;;5032189;28;20844;-72
2021/01/17 12:44:13;;;;;;;19.30;17.37;;;;;;;;;;5032707;28;20952;-72
2021/01/17 12:46:40;;;;;;;21.43;19.50;;;;;;;;;;5032752;28;20476;-72
2021/01/17 12:49:07;;;;;;;20.57;18.50;;;;;;;;;;5031962;28;20567;-72
2021/01/17 12:51:34;;;;;;;23.00;20.70;;;;;;;;;;5031963;28;20473;-72
2021/01/17 12:54:01;;;;;;;23.47;21.17;;;;;;;;;;5033128;28;20971;-72
2021/01/17 12:56:28;;;;;;;22.90;20.67;;;;;;;;;;5029942;28;20457;-72
2021/01/17 12:58:54;;;;;;;22.30;20.00;;;;;;;;;;5032129;28;20453;-72
2021/01/17 13:01:21;;;;;;;22.57;20.43;;;;;;;;;;5032159;28;21224;-72
2021/01/17 13:03:48;;;;;;;24.30;21.80;;;;;;;;;;5032370;28;20498;-72
2021/01/17 13:06:15;;;;;;;24.37;21.90;;;;;;;;;;5031771;28;20463;-72
2021/01/17 13:08:42;;;;;;;23.47;21.17;;;;;;;;;;5031414;28;20445;-72
2021/01/17 13:11:10;;;;;;;22.97;20.70;;;;;;;;;;5031810;28;20498;-71
2021/01/17 13:13:37;;;;;;;22.53;20.20;;;;;;;;;;5032585;28;20940;-72
2021/01/17 13:16:05;;;;;;;23.83;21.50;;;;;;;;;;5031820;28;20952;-72
2021/01/17 13:18:31;;;;;;;22.30;20.20;;;;;;;;;;5031872;28;20459;-72
2021/01/17 13:21:00;;;;;;;22.13;19.93;;;;;;;;;;5031821;28;20464;-72
2021/01/17 13:23:27;;;;;;;24.60;22.03;;;;;;;;;;5031872;28;20457;-72
2021/01/17 13:25:53;;;;;;;23.70;21.40;;;;;;;;;;5032250;28;20448;-72
2021/01/17 13:28:20;;;;;;;25.17;21.13;;;;;;;;;;5029919;28;20469;-72
2021/01/17 13:30:48;;;;;;;25.77;23.27;;;;;;;;;;5031973;28;20919;-72
2021/01/17 13:33:16;;;;;;;25.27;22.80;;;;;;;;;;5032543;28;20457;-72
2021/01/17 13:35:43;;;;;;;25.90;23.20;;;;;;;;;;5027083;28;20454;-72
2021/01/17 13:38:11;;;;;;;25.50;22.93;;;;;;;;;;5029850;28;20448;-72
2021/01/17 13:40:37;;;;;;;27.90;24.17;;;;;;;;;;5029697;28;20476;-72
2021/01/17 13:43:04;;;;;;;27.23;24.37;;;;;;;;;;5029606;28;20492;-72
2021/01/17 13:45:31;;;;;;;26.20;23.50;;;;;;;;;;5036913;28;20480;-73
2021/01/17 13:47:58;;;;;;;27.27;24.57;;;;;;;;;;5041374;28;20449;-72
2021/01/17 13:50:25;;;;;;;27.93;25.07;;;;;;;;;;5021624;28;20485;-72
2021/01/17 13:52:52;;;;;;;26.33;23.30;;;;;;;;;;5027261;28;20459;-72
2021/01/17 13:55:19;;;;;;;26.17;23.67;;;;;;;;;;5035018;28;20543;-73
2021/01/17 13:57:46;;;;;;;26.17;23.57;;;;;;;;;;5031874;28;20449;-72
2021/01/17 14:00:14;;;;;;;26.20;23.60;;;;;;;;;;5031509;28;20453;-72
2021/01/17 14:02:41;;;;;;;28.17;25.00;;;;;;;;;;5024993;28;20474;-72
2021/01/17 14:05:08;;;;;;;25.87;23.20;;;;;;;;;;5022348;28;20445;-72
2021/01/17 14:07:35;;;;;;;26.67;23.87;;;;;;;;;;5020931;28;20457;-72
2021/01/17 14:10:02;;;;;;;25.43;22.37;;;;;;;;;;5031814;28;20828;-72
2021/01/17 14:12:29;;;;;;;24.80;22.20;;;;;;;;;;5033422;28;20479;-72
2021/01/17 14:14:56;;;;;;;25.60;22.90;;;;;;;;;;5031433;28;20818;-72
2021/01/17 14:17:23;;;;;;;25.60;23.00;;;;;;;;;;5031422;28;20833;-72
2021/01/17 14:19:50;;;;;;;26.50;23.77;;;;;;;;;;5030857;28;20940;-72
2021/01/17 14:22:17;;;;;;;24.00;21.13;;;;;;;;;;5031416;28;20473;-71
2021/01/17 14:24:44;;;;;;;25.07;22.57;;;;;;;;;;5031380;28;20452;-72